sensor_id;sensor_type;location;lat;lon;timestamp;pressure;altitude;pressure_sealevel;temperature;humidity
47556;BME280;33291;46.222;26.460;2022-09-21T00:01:24;96514.84;;;6.05;86.64
47556;BME280;33291;46.222;26.460;2022-09-21T00:03:55;96515.69;;;6.06;86.80
47556;BME280;33291;46.222;26.460;2022-09-21T00:06:22;96524.47;;;6.03;86.62
47556;BME280;33291;46.222;26.460;2022-09-21T00:08:49;96527.41;;;5.99;86.60
47556;BME280;33291;46.222;26.460;2022-09-21T00:11:20;96518.38;;;5.92;86.78
47556;BME280;33291;46.222;26.460;2022-09-21T00:13:51;96525.81;;;5.96;86.49
47556;BME280;33291;46.222;26.460;2022-09-21T00:16:17;96503.53;;;5.82;86.83
47556;BME280;33291;46.222;26.460;2022-09-21T00:18:43;96523.56;;;5.92;87.02
47556;BME280;33291;46.222;26.460;2022-09-21T00:21:12;96525.22;;;5.93;86.91
47556;BME280;33291;46.222;26.460;2022-09-21T00:23:38;96525.22;;;5.93;86.57
47556;BME280;33291;46.222;26.460;2022-09-21T00:28:30;96509.84;;;5.78;86.84
47556;BME280;33291;46.222;26.460;2022-09-21T00:31:01;96510.19;;;5.74;87.01
47556;BME280;33291;46.222;26.460;2022-09-21T00:33:27;96524.22;;;5.82;86.77
47556;BME280;33291;46.222;26.460;2022-09-21T00:35:52;96522.06;;;5.76;87.02
47556;BME280;33291;46.222;26.460;2022-09-21T00:38:17;96515.56;;;5.70;87.33
47556;BME280;33291;46.222;26.460;2022-09-21T00:40:43;96513.94;;;5.69;86.82
47556;BME280;33291;46.222;26.460;2022-09-21T00:43:13;96510.72;;;5.66;86.70
47556;BME280;33291;46.222;26.460;2022-09-21T00:45:40;96517.66;;;5.65;86.87
47556;BME280;33291;46.222;26.460;2022-09-21T00:48:06;96527.19;;;5.52;87.20
47556;BME280;33291;46.222;26.460;2022-09-21T00:50:32;96511.50;;;5.42;87.74
47556;BME280;33291;46.222;26.460;2022-09-21T00:52:59;96484.66;;;5.32;87.58
47556;BME280;33291;46.222;26.460;2022-09-21T00:55:29;96513.69;;;5.48;87.85
47556;BME280;33291;46.222;26.460;2022-09-21T00:58:00;96515.81;;;5.55;87.30
47556;BME280;33291;46.222;26.460;2022-09-21T01:00:26;96521.69;;;5.57;87.21
47556;BME280;33291;46.222;26.460;2022-09-21T01:02:52;96505.50;;;5.55;87.00
47556;BME280;33291;46.222;26.460;2022-09-21T01:05:26;96514.38;;;5.63;86.82
47556;BME280;33291;46.222;26.460;2022-09-21T01:07:51;96516.84;;;5.65;86.62
47556;BME280;33291;46.222;26.460;2022-09-21T01:10:17;96513.03;;;5.58;86.62
47556;BME280;33291;46.222;26.460;2022-09-21T01:26:28;96504.91;;;5.38;86.92
47556;BME280;33291;46.222;26.460;2022-09-21T01:31:57;96513.09;;;5.32;87.51
47556;BME280;33291;46.222;26.460;2022-09-21T01:34:33;96504.31;;;5.34;87.71
47556;BME280;33291;46.222;26.460;2022-09-21T01:37:06;96522.16;;;5.38;87.37
47556;BME280;33291;46.222;26.460;2022-09-21T01:39:34;96520.41;;;5.38;87.59
47556;BME280;33291;46.222;26.460;2022-09-21T01:42:02;96520.63;;;5.35;87.37
47556;BME280;33291;46.222;26.460;2022-09-21T01:44:31;96516.59;;;5.31;87.35
47556;BME280;33291;46.222;26.460;2022-09-21T01:47:02;96521.44;;;5.36;87.24
47556;BME280;33291;46.222;26.460;2022-09-21T01:49:35;96528.38;;;5.35;87.27
47556;BME280;33291;46.222;26.460;2022-09-21T01:52:57;96528.56;;;5.32;87.36
47556;BME280;33291;46.222;26.460;2022-09-21T02:00:21;96519.47;;;5.26;87.43
47556;BME280;33291;46.222;26.460;2022-09-21T02:02:50;96513.41;;;5.14;87.18
47556;BME280;33291;46.222;26.460;2022-09-21T02:05:19;96522.91;;;5.14;87.07
47556;BME280;33291;46.222;26.460;2022-09-21T02:07:46;96517.47;;;5.06;87.33
47556;BME280;33291;46.222;26.460;2022-09-21T02:10:17;96519.91;;;4.94;87.66
47556;BME280;33291;46.222;26.460;2022-09-21T02:12:46;96520.44;;;4.87;88.06
47556;BME280;33291;46.222;26.460;2022-09-21T02:15:12;96523.13;;;4.85;88.22
47556;BME280;33291;46.222;26.460;2022-09-21T02:17:52;96536.53;;;4.90;88.18
47556;BME280;33291;46.222;26.460;2022-09-21T02:20:27;96527.47;;;4.85;88.02
47556;BME280;33291;46.222;26.460;2022-09-21T02:26:13;96537.16;;;4.68;89.48
47556;BME280;33291;46.222;26.460;2022-09-21T02:28:54;96523.72;;;4.63;89.26
47556;BME280;33291;46.222;26.460;2022-09-21T02:40:00;96523.75;;;4.76;89.10
47556;BME280;33291;46.222;26.460;2022-09-21T02:42:30;96538.09;;;4.80;89.14
47556;BME280;33291;46.222;26.460;2022-09-21T02:45:08;96535.41;;;4.82;89.43
47556;BME280;33291;46.222;26.460;2022-09-21T02:47:43;96535.41;;;4.82;89.29
47556;BME280;33291;46.222;26.460;2022-09-21T02:50:22;96533.75;;;4.80;89.55
47556;BME280;33291;46.222;26.460;2022-09-21T02:52:50;96516.50;;;4.68;88.88
47556;BME280;33291;46.222;26.460;2022-09-21T02:55:17;96536.22;;;4.69;89.55
47556;BME280;33291;46.222;26.460;2022-09-21T02:57:44;96548.19;;;4.57;90.91
47556;BME280;33291;46.222;26.460;2022-09-21T03:00:11;96532.66;;;4.44;92.15
47556;BME280;33291;46.222;26.460;2022-09-21T03:02:42;96526.38;;;4.49;91.71
47556;BME280;33291;46.222;26.460;2022-09-21T03:05:09;96536.09;;;4.58;91.20
47556;BME280;33291;46.222;26.460;2022-09-21T03:07:36;96533.31;;;4.61;91.03
47556;BME280;33291;46.222;26.460;2022-09-21T03:10:02;96541.78;;;4.63;91.05
47556;BME280;33291;46.222;26.460;2022-09-21T03:12:28;96540.44;;;4.57;91.41
47556;BME280;33291;46.222;26.460;2022-09-21T03:14:54;96536.09;;;4.58;91.46
47556;BME280;33291;46.222;26.460;2022-09-21T03:17:20;96545.09;;;4.65;91.26
47556;BME280;33291;46.222;26.460;2022-09-21T03:19:46;96537.06;;;4.70;91.34
47556;BME280;33291;46.222;26.460;2022-09-21T03:22:11;96537.75;;;4.72;91.48
47556;BME280;33291;46.222;26.460;2022-09-21T03:24:37;96541.50;;;4.80;90.94
47556;BME280;33291;46.222;26.460;2022-09-21T03:27:13;96538.72;;;4.84;90.97
47556;BME280;33291;46.222;26.460;2022-09-21T03:29:39;96552.03;;;4.90;91.17
47556;BME280;33291;46.222;26.460;2022-09-21T03:32:05;96543.16;;;4.94;90.71
47556;BME280;33291;46.222;26.460;2022-09-21T03:34:30;96554.13;;;4.98;90.81
47556;BME280;33291;46.222;26.460;2022-09-21T03:37:00;96549.97;;;4.95;91.17
47556;BME280;33291;46.222;26.460;2022-09-21T03:39:25;96559.28;;;4.98;91.12
47556;BME280;33291;46.222;26.460;2022-09-21T03:41:51;96548.09;;;4.97;90.68
47556;BME280;33291;46.222;26.460;2022-09-21T03:44:18;96549.78;;;4.98;91.01
47556;BME280;33291;46.222;26.460;2022-09-21T03:46:44;96545.84;;;4.93;90.69
47556;BME280;33291;46.222;26.460;2022-09-21T03:49:09;96556.06;;;4.94;90.99
47556;BME280;33291;46.222;26.460;2022-09-21T03:51:35;96552.03;;;4.90;91.07
47556;BME280;33291;46.222;26.460;2022-09-21T03:54:00;96552.63;;;4.81;91.25
47556;BME280;33291;46.222;26.460;2022-09-21T03:56:26;96568.56;;;4.88;91.18
47556;BME280;33291;46.222;26.460;2022-09-21T03:58:51;96569.38;;;4.88;91.16
47556;BME280;33291;46.222;26.460;2022-09-21T04:01:17;96557.19;;;4.77;91.49
47556;BME280;33291;46.222;26.460;2022-09-21T04:03:42;96567.00;;;4.72;92.09
47556;BME280;33291;46.222;26.460;2022-09-21T04:06:09;96563.47;;;4.73;92.17
47556;BME280;33291;46.222;26.460;2022-09-21T04:08:34;96562.44;;;4.76;92.28
47556;BME280;33291;46.222;26.460;2022-09-21T04:11:00;96572.25;;;4.84;92.15
47556;BME280;33291;46.222;26.460;2022-09-21T04:13:26;96568.88;;;4.83;92.20
47556;BME280;33291;46.222;26.460;2022-09-21T04:15:52;96559.06;;;4.75;92.13
47556;BME280;33291;46.222;26.460;2022-09-21T04:18:17;96574.34;;;4.78;92.45
47556;BME280;33291;46.222;26.460;2022-09-21T04:20:44;96567.09;;;4.71;92.83
47556;BME280;33291;46.222;26.460;2022-09-21T04:23:09;96572.66;;;4.77;93.06
47556;BME280;33291;46.222;26.460;2022-09-21T04:25:35;96564.63;;;4.69;93.81
47556;BME280;33291;46.222;26.460;2022-09-21T04:28:01;96552.41;;;4.58;93.58
47556;BME280;33291;46.222;26.460;2022-09-21T04:30:26;96561.28;;;4.67;94.53
47556;BME280;33291;46.222;26.460;2022-09-21T04:32:52;96569.88;;;4.68;95.53
47556;BME280;33291;46.222;26.460;2022-09-21T04:35:17;96573.78;;;4.73;94.86
47556;BME280;33291;46.222;26.460;2022-09-21T04:37:43;96564.22;;;4.75;94.73
47556;BME280;33291;46.222;26.460;2022-09-21T04:40:08;96567.31;;;4.80;95.11
47556;BME280;33291;46.222;26.460;2022-09-21T04:42:34;96561.22;;;4.82;94.50
47556;BME280;33291;46.222;26.460;2022-09-21T04:44:59;96570.41;;;4.98;94.57
47556;BME280;33291;46.222;26.460;2022-09-21T04:47:25;96571.66;;;5.06;94.52
47556;BME280;33291;46.222;26.460;2022-09-21T04:49:51;96570.81;;;5.05;94.83
47556;BME280;33291;46.222;26.460;2022-09-21T04:52:19;96571.38;;;5.10;94.42
47556;BME280;33291;46.222;26.460;2022-09-21T04:54:45;96547.69;;;5.04;94.29
47556;BME280;33291;46.222;26.460;2022-09-21T04:57:12;96584.25;;;5.23;94.69
47556;BME280;33291;46.222;26.460;2022-09-21T04:59:37;96573.81;;;5.25;95.07
47556;BME280;33291;46.222;26.460;2022-09-21T05:02:03;96575.38;;;5.27;96.01
47556;BME280;33291;46.222;26.460;2022-09-21T05:04:28;96580.13;;;5.33;95.75
47556;BME280;33291;46.222;26.460;2022-09-21T05:06:54;96565.88;;;5.28;95.40
47556;BME280;33291;46.222;26.460;2022-09-21T05:09:19;96553.59;;;5.31;95.43
47556;BME280;33291;46.222;26.460;2022-09-21T05:12:03;96573.31;;;5.45;96.13
47556;BME280;33291;46.222;26.460;2022-09-21T05:14:29;96556.16;;;5.44;96.36
47556;BME280;33291;46.222;26.460;2022-09-21T05:16:54;96565.84;;;5.54;97.56
47556;BME280;33291;46.222;26.460;2022-09-21T05:19:20;96571.09;;;5.65;97.14
47556;BME280;33291;46.222;26.460;2022-09-21T05:21:46;96574.28;;;5.68;96.91
47556;BME280;33291;46.222;26.460;2022-09-21T05:24:12;96552.19;;;5.64;95.55
47556;BME280;33291;46.222;26.460;2022-09-21T05:26:37;96560.22;;;5.73;95.03
47556;BME280;33291;46.222;26.460;2022-09-21T05:29:03;96573.75;;;5.89;95.13
47556;BME280;33291;46.222;26.460;2022-09-21T05:31:40;96578.59;;;5.94;96.01
47556;BME280;33291;46.222;26.460;2022-09-21T05:37:23;96577.13;;;6.02;95.95
47556;BME280;33291;46.222;26.460;2022-09-21T05:39:54;96573.06;;;6.11;95.72
47556;BME280;33291;46.222;26.460;2022-09-21T05:42:19;96568.00;;;6.10;98.79
47556;BME280;33291;46.222;26.460;2022-09-21T05:44:45;96562.50;;;6.14;98.09
47556;BME280;33291;46.222;26.460;2022-09-21T05:50:13;96558.00;;;6.29;96.71
47556;BME280;33291;46.222;26.460;2022-09-21T05:52:46;96568.03;;;6.45;96.64
47556;BME280;33291;46.222;26.460;2022-09-21T06:00:22;96557.53;;;6.71;94.78
47556;BME280;33291;46.222;26.460;2022-09-21T06:05:26;96554.44;;;7.01;92.78
47556;BME280;33291;46.222;26.460;2022-09-21T06:07:51;96549.75;;;7.18;92.20
47556;BME280;33291;46.222;26.460;2022-09-21T06:10:17;96554.13;;;7.40;91.36
47556;BME280;33291;46.222;26.460;2022-09-21T06:12:42;96551.66;;;7.61;90.38
47556;BME280;33291;46.222;26.460;2022-09-21T06:15:11;96547.25;;;7.84;87.36
47556;BME280;33291;46.222;26.460;2022-09-21T06:17:38;96549.34;;;8.01;86.54
47556;BME280;33291;46.222;26.460;2022-09-21T06:20:04;96555.44;;;8.23;85.73
47556;BME280;33291;46.222;26.460;2022-09-21T06:22:31;96559.38;;;8.39;84.37
47556;BME280;33291;46.222;26.460;2022-09-21T06:24:57;96535.00;;;8.30;84.35
47556;BME280;33291;46.222;26.460;2022-09-21T06:27:22;96551.69;;;8.48;84.43
47556;BME280;33291;46.222;26.460;2022-09-21T06:29:48;96528.94;;;8.41;82.30
47556;BME280;33291;46.222;26.460;2022-09-21T06:32:13;96554.56;;;8.66;82.45
47556;BME280;33291;46.222;26.460;2022-09-21T06:34:39;96557.50;;;8.73;82.57
47556;BME280;33291;46.222;26.460;2022-09-21T06:37:04;96549.34;;;8.78;82.44
47556;BME280;33291;46.222;26.460;2022-09-21T06:39:30;96559.97;;;8.96;75.20
47556;BME280;33291;46.222;26.460;2022-09-21T06:41:55;96548.63;;;8.97;72.87
47556;BME280;33291;46.222;26.460;2022-09-21T06:44:21;96563.06;;;9.11;75.07
47556;BME280;33291;46.222;26.460;2022-09-21T06:46:47;96557.22;;;9.18;74.79
47556;BME280;33291;46.222;26.460;2022-09-21T06:49:12;96553.16;;;9.25;75.34
47556;BME280;33291;46.222;26.460;2022-09-21T06:51:38;96554.84;;;9.36;74.35
47556;BME280;33291;46.222;26.460;2022-09-21T06:54:03;96533.25;;;9.36;71.32
47556;BME280;33291;46.222;26.460;2022-09-21T06:56:29;96561.66;;;9.58;72.60
47556;BME280;33291;46.222;26.460;2022-09-21T06:58:55;96550.19;;;9.61;69.39
47556;BME280;33291;46.222;26.460;2022-09-21T07:01:20;96557.59;;;9.75;69.27
47556;BME280;33291;46.222;26.460;2022-09-21T07:03:50;96560.09;;;9.87;69.48
47556;BME280;33291;46.222;26.460;2022-09-21T07:06:16;96567.50;;;9.91;68.92
47556;BME280;33291;46.222;26.460;2022-09-21T07:08:42;96563.28;;;10.00;69.26
47556;BME280;33291;46.222;26.460;2022-09-21T07:11:09;96565.34;;;10.06;69.29
47556;BME280;33291;46.222;26.460;2022-09-21T07:13:35;96568.66;;;10.08;67.58
47556;BME280;33291;46.222;26.460;2022-09-21T07:16:07;96568.94;;;10.15;67.52
47556;BME280;33291;46.222;26.460;2022-09-21T07:18:34;96561.00;;;10.17;67.58
47556;BME280;33291;46.222;26.460;2022-09-21T07:21:08;96561.84;;;10.27;65.85
47556;BME280;33291;46.222;26.460;2022-09-21T07:23:34;96567.34;;;10.34;63.13
47556;BME280;33291;46.222;26.460;2022-09-21T07:26:05;96574.91;;;10.46;60.53
47556;BME280;33291;46.222;26.460;2022-09-21T07:28:30;96571.47;;;10.46;61.06
47556;BME280;33291;46.222;26.460;2022-09-21T07:30:57;96574.63;;;10.49;59.27
47556;BME280;33291;46.222;26.460;2022-09-21T07:33:24;96564.75;;;10.43;60.28
47556;BME280;33291;46.222;26.460;2022-09-21T07:35:53;96567.34;;;10.53;59.00
47556;BME280;33291;46.222;26.460;2022-09-21T07:38:22;96565.31;;;10.57;59.83
47556;BME280;33291;46.222;26.460;2022-09-21T07:40:48;96569.28;;;10.61;60.26
47556;BME280;33291;46.222;26.460;2022-09-21T07:43:14;96563.50;;;10.67;59.68
47556;BME280;33291;46.222;26.460;2022-09-21T07:45:39;96557.34;;;10.78;59.27
47556;BME280;33291;46.222;26.460;2022-09-21T07:48:05;96556.41;;;10.89;58.74
47556;BME280;33291;46.222;26.460;2022-09-21T07:50:32;96560.47;;;11.01;58.34
47556;BME280;33291;46.222;26.460;2022-09-21T07:52:59;96557.97;;;11.09;56.51
47556;BME280;33291;46.222;26.460;2022-09-21T07:55:25;96554.53;;;11.18;57.46
47556;BME280;33291;46.222;26.460;2022-09-21T07:57:51;96544.19;;;11.36;57.08
47556;BME280;33291;46.222;26.460;2022-09-21T08:00:35;96552.31;;;11.61;55.28
47556;BME280;33291;46.222;26.460;2022-09-21T08:03:03;96544.84;;;11.76;54.50
47556;BME280;33291;46.222;26.460;2022-09-21T08:05:29;96534.63;;;11.93;54.30
47556;BME280;33291;46.222;26.460;2022-09-21T08:07:55;96537.19;;;12.20;54.02
47556;BME280;33291;46.222;26.460;2022-09-21T08:10:21;96532.59;;;12.32;52.34
47556;BME280;33291;46.222;26.460;2022-09-21T08:12:47;96529.78;;;12.43;52.66
47556;BME280;33291;46.222;26.460;2022-09-21T08:15:13;96522.88;;;12.60;52.70
47556;BME280;33291;46.222;26.460;2022-09-21T08:17:39;96528.28;;;12.85;52.56
47556;BME280;33291;46.222;26.460;2022-09-21T08:20:05;96522.81;;;12.96;51.32
47556;BME280;33291;46.222;26.460;2022-09-21T08:22:30;96509.81;;;13.05;51.73
47556;BME280;33291;46.222;26.460;2022-09-21T08:24:56;96521.66;;;13.17;49.77
47556;BME280;33291;46.222;26.460;2022-09-21T08:27:22;96512.16;;;13.16;48.63
47556;BME280;33291;46.222;26.460;2022-09-21T08:29:50;96511.50;;;13.14;49.32
47556;BME280;33291;46.222;26.460;2022-09-21T08:32:16;96513.78;;;13.17;49.54
47556;BME280;33291;46.222;26.460;2022-09-21T08:34:41;96516.44;;;13.25;49.38
47556;BME280;33291;46.222;26.460;2022-09-21T08:37:07;96512.41;;;13.31;48.54
47556;BME280;33291;46.222;26.460;2022-09-21T08:39:32;96508.69;;;13.33;48.94
47556;BME280;33291;46.222;26.460;2022-09-21T08:45:08;96505.31;;;13.49;48.17
47556;BME280;33291;46.222;26.460;2022-09-21T08:47:43;96503.53;;;13.50;47.95
47556;BME280;33291;46.222;26.460;2022-09-21T08:50:25;96505.78;;;13.45;48.96
47556;BME280;33291;46.222;26.460;2022-09-21T08:52:57;96508.41;;;13.45;48.49
47556;BME280;33291;46.222;26.460;2022-09-21T08:55:24;96507.41;;;13.38;48.65
47556;BME280;33291;46.222;26.460;2022-09-21T08:57:50;96505.97;;;13.25;47.61
47556;BME280;33291;46.222;26.460;2022-09-21T09:00:18;96495.22;;;13.02;47.91
47556;BME280;33291;46.222;26.460;2022-09-21T09:03:15;96513.06;;;13.07;49.17
47556;BME280;33291;46.222;26.460;2022-09-21T09:05:50;96496.72;;;13.05;48.80
47556;BME280;33291;46.222;26.460;2022-09-21T09:16:17;96502.31;;;13.10;47.87
47556;BME280;33291;46.222;26.460;2022-09-21T09:19:02;96495.75;;;13.06;47.27
47556;BME280;33291;46.222;26.460;2022-09-21T09:21:39;96501.34;;;13.11;47.85
47556;BME280;33291;46.222;26.460;2022-09-21T09:24:10;96501.03;;;13.14;47.77
47556;BME280;33291;46.222;26.460;2022-09-21T09:32:05;96493.50;;;13.11;48.87
47556;BME280;33291;46.222;26.460;2022-09-21T09:34:40;96492.53;;;13.12;48.82
47556;BME280;33291;46.222;26.460;2022-09-21T09:37:16;96486.00;;;13.16;48.43
47556;BME280;33291;46.222;26.460;2022-09-21T09:39:50;96482.22;;;13.10;48.58
47556;BME280;33291;46.222;26.460;2022-09-21T09:50:42;96470.09;;;13.36;48.61
47556;BME280;33291;46.222;26.460;2022-09-21T09:53:15;96479.13;;;13.41;48.58
47556;BME280;33291;46.222;26.460;2022-09-21T09:55:44;96477.16;;;13.43;48.75
47556;BME280;33291;46.222;26.460;2022-09-21T10:01:03;96478.16;;;13.42;50.11
47556;BME280;33291;46.222;26.460;2022-09-21T10:03:28;96481.59;;;13.43;52.50
47556;BME280;33291;46.222;26.460;2022-09-21T10:05:54;96478.00;;;13.44;54.19
47556;BME280;33291;46.222;26.460;2022-09-21T10:11:01;96461.88;;;13.30;52.39
47556;BME280;33291;46.222;26.460;2022-09-21T10:13:32;96484.53;;;13.48;52.98
47556;BME280;33291;46.222;26.460;2022-09-21T10:16:05;96472.47;;;13.55;52.65
47556;BME280;33291;46.222;26.460;2022-09-21T10:18:58;96472.00;;;13.60;52.06
47556;BME280;33291;46.222;26.460;2022-09-21T10:21:35;96467.63;;;13.77;51.26
47556;BME280;33291;46.222;26.460;2022-09-21T10:24:05;96468.31;;;13.87;50.53
47556;BME280;33291;46.222;26.460;2022-09-21T10:26:36;96470.13;;;13.95;49.54
47556;BME280;33291;46.222;26.460;2022-09-21T10:34:39;96473.44;;;13.97;51.16
47556;BME280;33291;46.222;26.460;2022-09-21T10:37:41;96476.50;;;13.92;49.72
47556;BME280;33291;46.222;26.460;2022-09-21T10:42:48;96479.00;;;14.02;50.27
47556;BME280;33291;46.222;26.460;2022-09-21T10:45:23;96481.78;;;14.00;51.44
47556;BME280;33291;46.222;26.460;2022-09-21T10:47:54;96484.34;;;13.92;52.36
47556;BME280;33291;46.222;26.460;2022-09-21T10:50:36;96468.63;;;13.76;53.36
47556;BME280;33291;46.222;26.460;2022-09-21T10:55:38;96490.22;;;13.78;57.01
47556;BME280;33291;46.222;26.460;2022-09-21T10:58:12;96485.94;;;13.68;56.95
47556;BME280;33291;46.222;26.460;2022-09-21T11:00:47;96487.84;;;13.58;57.54
47556;BME280;33291;46.222;26.460;2022-09-21T11:03:46;96488.66;;;13.59;59.68
47556;BME280;33291;46.222;26.460;2022-09-21T11:06:50;96480.16;;;13.57;59.50
47556;BME280;33291;46.222;26.460;2022-09-21T11:09:34;96477.41;;;13.58;56.77
47556;BME280;33291;46.222;26.460;2022-09-21T11:14:58;96470.88;;;13.71;57.44
47556;BME280;33291;46.222;26.460;2022-09-21T11:17:34;96467.50;;;13.86;55.25
47556;BME280;33291;46.222;26.460;2022-09-21T11:25:42;96468.06;;;14.31;52.35
47556;BME280;33291;46.222;26.460;2022-09-21T11:31:23;96457.56;;;14.56;51.29
47556;BME280;33291;46.222;26.460;2022-09-21T11:50:00;96461.66;;;14.09;54.22
47556;BME280;33291;46.222;26.460;2022-09-21T11:58:11;96449.72;;;14.31;51.97
47556;BME280;33291;46.222;26.460;2022-09-21T12:07:07;96431.38;;;14.39;48.89
47556;BME280;33291;46.222;26.460;2022-09-21T12:12:31;96439.06;;;14.49;49.71
47556;BME280;33291;46.222;26.460;2022-09-21T12:15:23;96445.78;;;14.52;50.28
47556;BME280;33291;46.222;26.460;2022-09-21T12:20:46;96423.50;;;14.56;51.30
47556;BME280;33291;46.222;26.460;2022-09-21T12:23:23;96429.25;;;14.68;50.46
47556;BME280;33291;46.222;26.460;2022-09-21T12:25:55;96421.22;;;14.69;49.52
47556;BME280;33291;46.222;26.460;2022-09-21T12:28:30;96431.53;;;14.71;49.31
47556;BME280;33291;46.222;26.460;2022-09-21T12:31:05;96427.47;;;14.68;49.07
47556;BME280;33291;46.222;26.460;2022-09-21T12:33:40;96427.47;;;14.68;50.15
47556;BME280;33291;46.222;26.460;2022-09-21T12:36:13;96438.91;;;14.67;50.31
47556;BME280;33291;46.222;26.460;2022-09-21T12:39:06;96443.53;;;14.65;49.82
47556;BME280;33291;46.222;26.460;2022-09-21T12:41:41;96438.91;;;14.51;50.53
47556;BME280;33291;46.222;26.460;2022-09-21T12:44:23;96473.00;;;14.43;51.87
47556;BME280;33291;46.222;26.460;2022-09-21T12:47:04;96480.47;;;14.21;54.05
47556;BME280;33291;46.222;26.460;2022-09-21T12:49:42;96459.13;;;13.75;56.50
47556;BME280;33291;46.222;26.460;2022-09-21T12:52:17;96472.38;;;13.65;58.58
47556;BME280;33291;46.222;26.460;2022-09-21T12:54:46;96468.06;;;13.56;62.15
47556;BME280;33291;46.222;26.460;2022-09-21T13:00:23;96444.53;;;13.29;66.69
47556;BME280;33291;46.222;26.460;2022-09-21T13:08:30;96465.66;;;13.02;73.52
47556;BME280;33291;46.222;26.460;2022-09-21T13:11:03;96456.78;;;12.94;74.39
47556;BME280;33291;46.222;26.460;2022-09-21T13:13:36;96468.16;;;12.85;75.69
47556;BME280;33291;46.222;26.460;2022-09-21T13:16:04;96482.38;;;12.65;76.68
47556;BME280;33291;46.222;26.460;2022-09-21T13:18:37;96479.56;;;12.58;77.43
47556;BME280;33291;46.222;26.460;2022-09-21T13:24:24;96468.94;;;12.33;80.06
47556;BME280;33291;46.222;26.460;2022-09-21T13:26:53;96471.09;;;12.38;79.35
47556;BME280;33291;46.222;26.460;2022-09-21T13:39:47;96466.25;;;12.07;83.79
47556;BME280;33291;46.222;26.460;2022-09-21T13:47:54;96491.75;;;11.95;80.53
47556;BME280;33291;46.222;26.460;2022-09-21T13:52:51;96492.63;;;11.86;80.33
47556;BME280;33291;46.222;26.460;2022-09-21T13:55:30;96492.03;;;11.92;80.32
47556;BME280;33291;46.222;26.460;2022-09-21T13:58:03;96469.03;;;11.78;77.79
47556;BME280;33291;46.222;26.460;2022-09-21T14:00:34;96493.13;;;11.89;77.25
47556;BME280;33291;46.222;26.460;2022-09-21T14:03:05;96483.28;;;11.83;76.87
47556;BME280;33291;46.222;26.460;2022-09-21T14:05:38;96494.25;;;11.87;77.05
47556;BME280;33291;46.222;26.460;2022-09-21T14:08:17;96502.44;;;11.74;80.57
47556;BME280;33291;46.222;26.460;2022-09-21T14:10:52;96492.94;;;11.73;79.84
47556;BME280;33291;46.222;26.460;2022-09-21T14:18:53;96498.03;;;11.47;79.26
47556;BME280;33291;46.222;26.460;2022-09-21T14:21:19;96503.19;;;11.56;79.77
47556;BME280;33291;46.222;26.460;2022-09-21T14:24:18;96498.38;;;11.62;80.56
47556;BME280;33291;46.222;26.460;2022-09-21T14:26:58;96489.19;;;11.58;80.22
47556;BME280;33291;46.222;26.460;2022-09-21T14:29:30;96491.50;;;11.61;79.39
47556;BME280;33291;46.222;26.460;2022-09-21T14:32:02;96494.41;;;11.58;80.97
47556;BME280;33291;46.222;26.460;2022-09-21T14:34:34;96505.72;;;11.48;82.62
47556;BME280;33291;46.222;26.460;2022-09-21T14:37:13;96512.19;;;11.44;83.33
47556;BME280;33291;46.222;26.460;2022-09-21T14:39:45;96516.78;;;11.23;87.66
47556;BME280;33291;46.222;26.460;2022-09-21T14:42:18;96523.81;;;11.12;86.99
47556;BME280;33291;46.222;26.460;2022-09-21T14:44:48;96536.84;;;11.12;84.81
47556;BME280;33291;46.222;26.460;2022-09-21T14:52:48;96554.56;;;11.09;77.32
47556;BME280;33291;46.222;26.460;2022-09-21T14:55:43;96558.31;;;10.96;78.63
47556;BME280;33291;46.222;26.460;2022-09-21T14:58:33;96569.97;;;10.92;80.92
47556;BME280;33291;46.222;26.460;2022-09-21T15:16:22;96603.16;;;10.51;89.54
47556;BME280;33291;46.222;26.460;2022-09-21T15:18:58;96606.56;;;10.52;89.51
47556;BME280;33291;46.222;26.460;2022-09-21T15:21:29;96603.69;;;10.55;89.69
47556;BME280;33291;46.222;26.460;2022-09-21T15:23:55;96615.31;;;10.51;90.31
47556;BME280;33291;46.222;26.460;2022-09-21T15:26:23;96615.47;;;10.49;89.81
47556;BME280;33291;46.222;26.460;2022-09-21T15:28:58;96614.25;;;10.43;90.11
47556;BME280;33291;46.222;26.460;2022-09-21T15:31:24;96626.56;;;10.41;90.44
47556;BME280;33291;46.222;26.460;2022-09-21T15:33:56;96596.63;;;10.26;90.18
47556;BME280;33291;46.222;26.460;2022-09-21T15:36:28;96632.31;;;10.35;90.33
47556;BME280;33291;46.222;26.460;2022-09-21T15:38:55;96638.59;;;10.32;90.44
47556;BME280;33291;46.222;26.460;2022-09-21T15:44:30;96628.31;;;10.31;91.38
47556;BME280;33291;46.222;26.460;2022-09-21T15:46:57;96637.59;;;10.24;91.41
47556;BME280;33291;46.222;26.460;2022-09-21T15:49:25;96634.69;;;10.17;91.33
47556;BME280;33291;46.222;26.460;2022-09-21T15:52:10;96640.47;;;10.21;91.91
47556;BME280;33291;46.222;26.460;2022-09-21T15:55:16;96626.31;;;10.04;92.81
47556;BME280;33291;46.222;26.460;2022-09-21T15:57:47;96624.78;;;10.01;92.42
47556;BME280;33291;46.222;26.460;2022-09-21T16:02:42;96619.94;;;9.87;90.85
47556;BME280;33291;46.222;26.460;2022-09-21T16:05:15;96618.44;;;9.84;92.07
47556;BME280;33291;46.222;26.460;2022-09-21T16:07:44;96619.50;;;9.82;94.16
47556;BME280;33291;46.222;26.460;2022-09-21T16:13:16;96628.53;;;9.77;93.96
47556;BME280;33291;46.222;26.460;2022-09-21T16:16:12;96616.28;;;9.58;93.16
47556;BME280;33291;46.222;26.460;2022-09-21T16:18:51;96632.88;;;9.67;91.29
47556;BME280;33291;46.222;26.460;2022-09-21T16:21:33;96633.03;;;9.66;92.52
47556;BME280;33291;46.222;26.460;2022-09-21T16:24:21;96629.97;;;9.60;92.05
47556;BME280;33291;46.222;26.460;2022-09-21T16:26:59;96622.69;;;9.54;93.21
47556;BME280;33291;46.222;26.460;2022-09-21T16:29:37;96626.94;;;9.55;93.74
47556;BME280;33291;46.222;26.460;2022-09-21T16:32:27;96621.59;;;9.57;94.73
47556;BME280;33291;46.222;26.460;2022-09-21T16:35:25;96583.31;;;9.38;94.31